To NAV CANADA Home Page Login to a new session Search on AWWS site Feedback and Comments Disclaimer Vers la page française équivalente Tips FAQ What's new on the site To the Forecasts and Observations / NOTAM section To "File a Flight Plan" website Publications and other links Update of the User's profile FIC Telephone Numbers My Weather Data Folder Route Weather Data Regional Weather Data Local Weather Data To the Forecasts and Observations / NOTAM section
Request Generated 03/23/2017 at 00:19:34 UTC . Weather information available at that time is displayed.

METAR/TAF

ROBERVAL/QC    

METAR CYRJ 230000Z 29010KT 30SM SKC M13/M24 A3026 RMK SLP267=
METAR CYRJ 222300Z 30014KT 40SM FEW120 M12/M24 A3024 RMK AC1 AC TR
SLP259=
METAR CYRJ 222200Z 31013KT 40SM FEW120 M12/M23 A3022 RMK AC1 AC TR
SLP253=

TAF CYRJ 221939Z 2220/2302 31015G25KT P6SM FEW040
BECMG 2221/2223 31010KT
RMK NXT FCST WILL BE ISSUED AT 231145Z=
Your time UTC time
Weather data provided by Environment Canada and NAV CANADA